• Join FlightAware (Why Join?)
  • Login
  • US Flag 
09:18PM EST


 

Airport Tracker/Info


-or-


 

Live Flight TrackerFlight Track Log ✈ AWE339 ✈ 23-Apr-2013 ✈ MMSD / SJD - KPHX

Flight Track Log - Related Links

Times and Time Zones

All times are in EDT time to prevent confusion due to time zone crossing. See the AWE339 flight status page for this flight to view local times or setup timezone preferences in your user account.

Time Position Orientation Groundspeed Altitude Reporting Facility
EDT Latitude Longitude Course Direction KTS MPH feet Rate Location/Type
07:32PM 23.3686 -109.9939 313° West  Level FlightAware Approximate
07:33PM 23.4501 -110.0835 317° Northwest  Level FlightAware Approximate
07:34PM 23.5361 -110.1675 344° North  Level FlightAware Approximate
07:35PM 23.6475 -110.2023 344° North  Level FlightAware Approximate
07:36PM 23.7588 -110.2371 344° North  Level FlightAware Approximate
07:37PM 23.8715 -110.2659 349° North  Level FlightAware Approximate
07:38PM 23.9846 -110.2932 345° North  Level FlightAware Approximate
07:39PM 24.0973 -110.3218 351° North  Level FlightAware Approximate
07:40PM 24.2118 -110.3408 351° North  Level FlightAware Approximate
07:41PM 24.3257 -110.3631 349° North  Level FlightAware Approximate
07:42PM 24.4393 -110.3879 350° North  Level FlightAware Approximate
07:43PM 24.5539 -110.4060 354° North  Level FlightAware Approximate
07:44PM 24.6690 -110.4198 351° North  Level FlightAware Approximate
07:45PM 24.7835 -110.4389 351° North  Level FlightAware Approximate
07:46PM 24.8980 -110.4580 351° North  Level FlightAware Approximate
07:47PM 25.0127 -110.4756 353° North  Level FlightAware Approximate
07:48PM 25.1275 -110.4920 353° North  Level FlightAware Approximate
07:49PM 25.2421 -110.5107 351° North  Level FlightAware Approximate
07:50PM 25.3563 -110.5314 351° North  Level FlightAware Approximate
07:51PM 25.4711 -110.5481 353° North  Level FlightAware Approximate
07:52PM 25.5860 -110.5644 353° North  Level FlightAware Approximate
07:53PM 25.7009 -110.5807 353° North  Level FlightAware Approximate
07:54PM 25.8158 -110.5971 353° North  Level FlightAware Approximate
07:55PM 25.9306 -110.6135 353° North  Level FlightAware Approximate
07:56PM 26.0455 -110.6299 353° North  Level FlightAware Approximate
07:57PM 26.1604 -110.6464 353° North  Level FlightAware Approximate
07:58PM 26.2752 -110.6628 353° North  Level FlightAware Approximate
07:59PM 26.3901 -110.6794 353° North  Level FlightAware Approximate
08:00PM 26.5049 -110.6959 353° North  Level FlightAware Approximate
08:01PM 26.6196 -110.7138 352° North  Level FlightAware Approximate
08:02PM 26.7343 -110.7321 352° North  Level FlightAware Approximate
08:03PM 26.8489 -110.7504 352° North  Level FlightAware Approximate
08:04PM 26.9635 -110.7688 352° North  Level FlightAware Approximate
08:05PM 27.0782 -110.7873 352° North  Level FlightAware Approximate
08:06PM 27.1928 -110.8057 352° North  Level FlightAware Approximate
08:07PM 27.3074 -110.8242 352° North  Level FlightAware Approximate
08:08PM 27.4221 -110.8428 352° North  Level FlightAware Approximate
08:09PM 27.5369 -110.8596 353° North  Level FlightAware Approximate
08:10PM 27.6519 -110.8755 353° North  Level FlightAware Approximate
08:11PM 27.7668 -110.8913 353° North  Level FlightAware Approximate
08:12PM 27.8818 -110.9072 353° North  Level FlightAware Approximate
08:13PM 27.9969 -110.9214 355° North  Level FlightAware Approximate
08:14PM 28.1122 -110.9332 355° North  Level FlightAware Approximate
08:15PM 28.2276 -110.9450 355° North  Level FlightAware Approximate
08:16PM 28.3429 -110.9568 355° North  Level FlightAware Approximate
08:17PM 28.4582 -110.9687 355° North  Level FlightAware Approximate
08:18PM 28.5736 -110.9806 355° North  Level FlightAware Approximate
08:19PM 28.6889 -110.9924 355° North  Level FlightAware Approximate
08:20PM 28.8043 -111.0044 355° North  Level FlightAware Approximate
08:21PM 28.9196 -111.0163 355° North  Level FlightAware Approximate
08:22PM 29.0349 -111.0283 355° North  Level FlightAware Approximate
08:23PM 29.1505 -111.0304 North  Level FlightAware Approximate
08:24PM 29.2662 -111.0255 North  Level FlightAware Approximate
08:25PM 29.3819 -111.0204 North  Level FlightAware Approximate
08:26PM 29.4977 -111.0154 North  Level FlightAware Approximate
08:27PM 29.6134 -111.0104 North  Level FlightAware Approximate
08:28PM 29.7291 -111.0054 North  Level FlightAware Approximate
08:29PM 29.8448 -111.0003 North  Level FlightAware Approximate
08:30PM 29.9605 -110.9952 North  Level FlightAware Approximate
08:31PM 30.0763 -110.9902 North  Level FlightAware Approximate
08:32PM 30.1920 -110.9851 North  Level FlightAware Approximate
08:33PM 30.3077 -110.9800 North  Level FlightAware Approximate
08:34PM 30.4234 -110.9749 North  Level FlightAware Approximate
08:35PM 30.5391 -110.9698 North  Level FlightAware Approximate
08:36PM 30.6549 -110.9646 North  Level FlightAware Approximate
08:37PM 30.7706 -110.9595 North  Level FlightAware Approximate
08:37PM 30.5453 -110.9864 North 444 511 35,900  Level Albuquerque Center
08:38PM 30.8863 -110.9543 North  Level FlightAware Approximate
08:38PM 30.6703 -110.9803 North 447 514 36,000  Level Albuquerque Center
08:39PM 31.0021 -110.9500 North  Level FlightAware Approximate
08:39PM 30.7947 -110.9750 North 448 516 34,400  Level Albuquerque Center
08:40PM 31.1178 -110.9477 North  Level FlightAware Approximate
08:40PM 30.9419 -110.9667 North 444 511 32,000  Level Albuquerque Center
08:41PM 31.2334 -110.9400 North  Level FlightAware Approximate
08:41PM 31.0664 -110.9622 North 446 513 30,100  Level Albuquerque Center
08:42PM 31.3491 -110.9329 North  Level FlightAware Approximate
08:42PM 31.1928 -110.9558 North 452 520 29,900  Level Albuquerque Center
08:43PM 31.3164 -110.9503 North 448 516 29,900  Level Albuquerque Center
08:44PM 31.4439 -110.9422 North 455 524 30,000  Climbing Albuquerque Center
08:45PM 31.5675 -110.9358 North 448 516 29,900  Descending Albuquerque Center
08:46PM 31.7022 -110.9331 North 445 512 30,000  Climbing Albuquerque Center
08:47PM 31.8239 -110.9283 North 442 509 30,000 -840 Level Albuquerque Center
08:48PM 31.9453 -110.9222 North 445 512 28,400 -1,920 Descending Albuquerque Center
08:49PM 32.0889 -110.9164 North 434 499 26,100 -1,500 Descending Albuquerque Center
08:50PM 32.1903 -110.9550 342° North 397 457 25,400 -840 Descending Albuquerque Center
08:51PM 32.2853 -111.0050 336° Northwest 376 433 24,400 -1,020 Descending Albuquerque Center
08:52PM 32.3792 -111.0564 335° Northwest 374 430 23,400 -1,020 Descending Albuquerque Center
08:53PM 32.4714 -111.1075 335° Northwest 369 425 22,400 -1,020 Descending Albuquerque Center
08:54PM 32.5642 -111.1572 336° Northwest 366 421 21,400 -1,080 Descending Albuquerque Center
08:55PM 32.6536 -111.2081 334° Northwest 360 414 20,200 -1,920 Descending Albuquerque Center
08:56PM 32.7594 -111.2667 335° Northwest 352 405 17,500 -2,400 Descending Albuquerque Center
08:58PM 32.8442 -111.3106 336° Northwest 335 386 15,400 -1,920 Descending Albuquerque Center
08:59PM 32.9258 -111.3564 335° Northwest 327 376 13,600 -1,200 Descending Albuquerque Center
09:00PM 32.9994 -111.4000 334° Northwest 297 342 13,000 -1,080 Descending Albuquerque Center
09:01PM 33.0431 -111.4808 303° West 286 329 11,500 -1,500 Descending Albuquerque Center
09:02PM 33.0858 -111.5614 302° West 287 330 10,000 -1,380 Descending Albuquerque Center
09:03PM 33.1564 -111.6031 334° Northwest 283 326 8,700 -960 Descending Albuquerque Center
09:04PM 33.2208 -111.6381 336° Northwest 257 296 8,100 -900 Descending Albuquerque Center
09:05PM 33.2883 -111.6786 333° Northwest 230 265 6,900 -1,140 Descending Albuquerque Center
09:06PM 33.3453 -111.7117 334° Northwest 228 262 5,800 -960 Descending Albuquerque Center
09:07PM 33.4017 -111.7450 334° Northwest 227 261 5,000 -840 Descending Albuquerque Center
09:08PM 33.4225 -111.7986 295° West 179 206 4,200 -840 Descending Albuquerque Center
09:09PM 33.4289 -111.8517 278° West 160 184 3,400 -840 Descending Albuquerque Center